Time;durP1;ratioP1;P1;durP2;ratioP2;P2;SDS_P1;SDS_P2;PMS_P1;PMS_P2;Temp;Humidity;BMP_temperature;BMP_pressure;BME280_temperature;BME280_humidity;BME280_pressure;Samples;Min_cycle;Max_cycle;Signal;HPM_P1;HPM_P2
2023/08/29 00:02:09;;;;;;;9.50;7.33;;;28.50;94.30;;;;;;4817070;29;20188;-80
2023/08/29 00:04:35;;;;;;;7.30;6.27;;;28.50;94.30;;;;;;4817390;29;20352;-76
2023/08/29 00:07:01;;;;;;;11.53;6.50;;;28.50;94.30;;;;;;4816959;29;20543;-81
2023/08/29 00:09:27;;;;;;;8.47;6.60;;;28.50;94.40;;;;;;4816777;29;20189;-77
2023/08/29 00:11:52;;;;;;;8.17;6.33;;;28.50;94.40;;;;;;4816996;29;20184;-76
2023/08/29 00:14:18;;;;;;;8.70;7.40;;;28.50;94.40;;;;;;4815681;29;20180;-76
2023/08/29 00:16:43;;;;;;;9.03;6.83;;;28.50;94.60;;;;;;4817261;29;20192;-76
2023/08/29 00:19:09;;;;;;;10.53;7.50;;;28.50;94.60;;;;;;4816795;29;20182;-76
2023/08/29 00:21:35;;;;;;;8.30;6.90;;;28.40;94.70;;;;;;4815820;29;20211;-77
2023/08/29 00:24:00;;;;;;;6.53;5.93;;;28.40;94.70;;;;;;4830477;29;20240;-81
2023/08/29 00:26:26;;;;;;;10.57;7.00;;;28.40;94.80;;;;;;4816499;29;20381;-77
2023/08/29 00:28:53;;;;;;;8.40;6.43;;;28.40;94.90;;;;;;4815815;29;20191;-76
2023/08/29 00:31:19;;;;;;;10.50;6.53;;;28.40;94.90;;;;;;4817048;29;20213;-77
2023/08/29 00:33:44;;;;;;;8.97;6.67;;;28.40;95.00;;;;;;4816711;29;20427;-81
2023/08/29 00:36:11;;;;;;;7.73;7.03;;;28.30;95.00;;;;;;4817076;29;20275;-81
2023/08/29 00:38:36;;;;;;;8.57;6.20;;;28.30;95.10;;;;;;4815202;29;20568;-81
2023/08/29 00:41:02;;;;;;;8.07;6.90;;;28.30;95.20;;;;;;4816736;29;20502;-81
2023/08/29 00:43:28;;;;;;;7.47;6.70;;;28.30;95.30;;;;;;4816614;29;20254;-79
2023/08/29 00:45:54;;;;;;;6.67;5.93;;;28.30;95.40;;;;;;4815340;29;20226;-77
2023/08/29 00:48:19;;;;;;;7.93;6.60;;;28.30;95.40;;;;;;4816530;29;20179;-78
2023/08/29 00:50:45;;;;;;;8.90;5.93;;;28.20;95.40;;;;;;4816823;29;20298;-77
2023/08/29 00:53:13;;;;;;;6.73;6.03;;;28.30;95.40;;;;;;4816477;29;20440;-77
2023/08/29 00:55:39;;;;;;;6.80;5.90;;;28.20;95.40;;;;;;4816187;29;20705;-76
2023/08/29 00:58:05;;;;;;;8.87;5.70;;;28.20;95.50;;;;;;4816203;29;20904;-81
2023/08/29 01:00:31;;;;;;;6.63;5.80;;;28.20;95.80;;;;;;4815345;29;20202;-81
2023/08/29 01:02:58;;;;;;;12.10;6.60;;;28.10;96.00;;;;;;4814840;29;20236;-77
2023/08/29 01:05:24;;;;;;;9.60;7.73;;;28.10;96.00;;;;;;4816685;29;21075;-81
2023/08/29 01:07:58;;;;;;;10.90;7.50;;;28.10;96.10;;;;;;4816961;29;20445;-80
2023/08/29 01:10:42;;;;;;;7.90;6.63;;;28.10;96.20;;;;;;4818466;29;20199;-76
2023/08/29 01:13:14;;;;;;;8.17;6.63;;;28.00;96.30;;;;;;4833448;29;20734;-81
2023/08/29 01:15:44;;;;;;;8.00;7.17;;;28.00;96.40;;;;;;4819394;29;20489;-76
2023/08/29 01:18:13;;;;;;;8.20;7.00;;;27.90;96.40;;;;;;4819425;29;20418;-81
2023/08/29 01:20:40;;;;;;;13.43;6.70;;;27.90;96.50;;;;;;4819465;29;20473;-76
2023/08/29 01:23:21;;;;;;;7.83;7.03;;;27.80;96.50;;;;;;4819612;29;20940;-77
2023/08/29 01:26:05;;;;;;;7.33;6.20;;;27.80;96.60;;;;;;4819046;29;20702;-81
2023/08/29 01:28:32;;;;;;;8.17;7.27;;;27.70;96.80;;;;;;4818740;29;20409;-81
2023/08/29 01:30:59;;;;;;;7.50;6.47;;;27.70;97.00;;;;;;4819165;29;20480;-81
2023/08/29 01:33:25;;;;;;;10.27;6.97;;;27.70;97.10;;;;;;4833361;29;20430;-77
2023/08/29 01:35:51;;;;;;;8.20;6.87;;;27.60;97.20;;;;;;4817911;29;20449;-76
2023/08/29 01:38:17;;;;;;;10.70;8.13;;;27.60;97.30;;;;;;4817802;29;20955;-76
2023/08/29 01:40:43;;;;;;;8.30;6.90;;;27.60;97.30;;;;;;4819429;29;20206;-81
2023/08/29 01:43:09;;;;;;;12.73;6.87;;;27.50;97.50;;;;;;4817842;29;20753;-76
2023/08/29 01:45:35;;;;;;;11.10;7.50;;;27.50;97.50;;;;;;4819217;29;20525;-76
2023/08/29 01:48:01;;;;;;;8.87;7.23;;;27.50;97.60;;;;;;4817714;29;20425;-76
2023/08/29 01:50:29;;;;;;;8.00;7.20;;;27.40;97.60;;;;;;4833087;29;20355;-77
2023/08/29 01:52:55;;;;;;;8.03;7.23;;;27.40;97.70;;;;;;4818873;29;20442;-76
2023/08/29 01:55:22;;;;;;;8.30;7.30;;;27.40;97.90;;;;;;4819133;29;20501;-81
2023/08/29 01:57:51;;;;;;;9.57;7.03;;;27.40;97.90;;;;;;4817166;29;20442;-76
2023/08/29 02:00:18;;;;;;;9.87;7.93;;;27.40;98.00;;;;;;4819262;29;20801;-76
2023/08/29 02:02:44;;;;;;;7.93;7.03;;;27.30;98.10;;;;;;4818684;29;20703;-77
2023/08/29 02:05:09;;;;;;;9.50;7.33;;;27.30;98.30;;;;;;4818578;29;20564;-82
2023/08/29 02:07:35;;;;;;;8.30;7.00;;;27.20;98.30;;;;;;4817472;29;20681;-82
2023/08/29 02:10:01;;;;;;;9.10;7.83;;;27.20;98.40;;;;;;4818614;29;20411;-77
2023/08/29 02:12:26;;;;;;;9.37;7.17;;;27.20;98.60;;;;;;4818467;29;20178;-82
2023/08/29 02:14:52;;;;;;;10.67;7.47;;;27.10;98.60;;;;;;4817267;29;20458;-82
2023/08/29 02:17:18;;;;;;;13.17;6.97;;;27.10;98.80;;;;;;4818745;29;20251;-82
2023/08/29 02:19:43;;;;;;;12.53;6.20;;;27.10;99.00;;;;;;4817534;29;20218;-82
2023/08/29 02:22:09;;;;;;;9.80;8.10;;;27.10;99.00;;;;;;4817157;29;20189;-82
2023/08/29 02:24:35;;;;;;;20.33;7.70;;;27.00;99.10;;;;;;4817282;29;20213;-81
2023/08/29 02:27:01;;;;;;;7.97;7.17;;;27.00;99.20;;;;;;4817127;29;20224;-82
2023/08/29 02:29:27;;;;;;;9.13;7.53;;;27.00;99.30;;;;;;4818609;29;20269;-77
2023/08/29 02:31:52;;;;;;;8.90;7.93;;;26.90;99.50;;;;;;4816231;29;20904;-82
2023/08/29 02:34:18;;;;;;;9.23;8.30;;;26.80;99.60;;;;;;4817898;29;20656;-82
2023/08/29 02:36:44;;;;;;;8.57;7.60;;;26.80;99.80;;;;;;4818281;29;20181;-77
2023/08/29 02:39:10;;;;;;;8.40;7.30;;;26.70;99.90;;;;;;4818045;29;20652;-78
2023/08/29 02:41:36;;;;;;;10.13;8.60;;;26.80;99.90;;;;;;4818586;29;20201;-76
2023/08/29 02:44:03;;;;;;;9.93;7.93;;;26.70;99.90;;;;;;4818123;29;20834;-82
2023/08/29 02:46:29;;;;;;;9.30;7.60;;;26.70;99.90;;;;;;4818604;29;20481;-79
2023/08/29 02:48:54;;;;;;;8.20;7.40;;;26.70;99.90;;;;;;4816483;29;20955;-80
2023/08/29 02:51:20;;;;;;;8.70;7.60;;;26.70;99.90;;;;;;4816887;29;20806;-82
2023/08/29 02:53:46;;;;;;;10.57;7.93;;;26.60;99.90;;;;;;4818141;29;20305;-77
2023/08/29 02:56:11;;;;;;;9.50;7.90;;;26.60;99.90;;;;;;4817952;29;20580;-76
2023/08/29 02:58:37;;;;;;;8.70;7.23;;;26.60;99.90;;;;;;4818058;29;20225;-77
2023/08/29 03:01:06;;;;;;;10.80;7.53;;;26.60;99.90;;;;;;4816467;29;20209;-82
2023/08/29 03:03:31;;;;;;;8.70;7.67;;;26.60;99.90;;;;;;4817933;29;20529;-77
2023/08/29 03:05:59;;;;;;;9.17;7.47;;;26.60;99.90;;;;;;4817753;29;20488;-77
2023/08/29 03:08:25;;;;;;;10.73;8.40;;;26.60;99.90;;;;;;4816318;29;20182;-77
2023/08/29 03:10:52;;;;;;;9.33;7.43;;;26.60;99.90;;;;;;4817781;29;20449;-82
2023/08/29 03:13:18;;;;;;;9.77;8.20;;;26.60;99.90;;;;;;4817412;29;20421;-77
2023/08/29 03:15:47;;;;;;;10.07;7.60;;;26.50;99.90;;;;;;4817803;29;20497;-77
2023/08/29 03:18:13;;;;;;;10.80;7.70;;;26.30;99.90;;;;;;4817728;29;20182;-77
2023/08/29 03:20:40;;;;;;;12.40;8.33;;;26.20;99.90;;;;;;4831525;29;20480;-83
2023/08/29 03:23:06;;;;;;;10.30;6.87;;;26.20;99.90;;;;;;4816244;29;20208;-84
2023/08/29 03:25:32;;;;;;;8.40;6.60;;;26.20;99.90;;;;;;4817396;29;20971;-77
2023/08/29 03:27:57;;;;;;;9.23;6.50;;;26.20;99.90;;;;;;4815844;29;20436;-80
2023/08/29 03:30:26;;;;;;;7.17;6.43;;;26.30;99.90;;;;;;4815657;29;20372;-78
2023/08/29 03:32:51;;;;;;;7.50;6.33;;;26.40;99.90;;;;;;4816335;29;20584;-77
2023/08/29 03:35:18;;;;;;;8.03;6.90;;;26.40;99.90;;;;;;4816262;29;20433;-77
2023/08/29 03:37:44;;;;;;;8.33;6.97;;;26.40;99.90;;;;;;4816488;29;21002;-83
2023/08/29 03:40:11;;;;;;;10.03;7.97;;;26.50;99.90;;;;;;4814906;29;20575;-78
2023/08/29 03:42:36;;;;;;;10.07;8.13;;;26.50;99.90;;;;;;4814945;29;20435;-83
2023/08/29 03:45:03;;;;;;;12.73;8.10;;;26.40;99.90;;;;;;4814967;29;20500;-77
2023/08/29 03:47:30;;;;;;;8.93;6.90;;;26.40;99.90;;;;;;4815562;29;20185;-84
2023/08/29 03:49:56;;;;;;;9.03;6.77;;;26.40;99.90;;;;;;4815732;29;20470;-84
2023/08/29 03:52:23;;;;;;;8.07;6.63;;;26.30;99.90;;;;;;4816953;29;20474;-77
2023/08/29 03:54:48;;;;;;;8.33;6.80;;;26.30;99.90;;;;;;4815689;29;20209;-83
2023/08/29 03:57:14;;;;;;;8.90;6.20;;;26.40;99.90;;;;;;4815632;29;20975;-83
2023/08/29 03:59:40;;;;;;;7.90;7.00;;;26.40;99.90;;;;;;4815475;29;20288;-78
2023/08/29 04:02:07;;;;;;;7.47;6.67;;;26.40;99.90;;;;;;4815401;29;20188;-83
2023/08/29 04:04:34;;;;;;;6.73;6.03;;;26.40;99.90;;;;;;4813642;29;20670;-84
2023/08/29 04:07:00;;;;;;;9.80;6.90;;;26.40;99.90;;;;;;4829265;29;20445;-84
2023/08/29 04:09:25;;;;;;;8.30;6.53;;;26.40;99.90;;;;;;4829005;29;20784;-78
2023/08/29 04:11:51;;;;;;;7.20;6.50;;;26.50;99.90;;;;;;4814948;29;20261;-77
2023/08/29 04:14:17;;;;;;;8.70;6.70;;;26.50;99.90;;;;;;4814844;29;20189;-84
2023/08/29 04:16:44;;;;;;;7.00;6.30;;;26.50;99.90;;;;;;4816739;29;20184;-78
2023/08/29 04:19:10;;;;;;;13.73;6.97;;;26.50;99.90;;;;;;4816396;29;20418;-83
2023/08/29 04:21:36;;;;;;;10.30;6.60;;;26.40;99.90;;;;;;4813000;29;21069;-78
2023/08/29 04:24:02;;;;;;;11.60;7.17;;;26.40;99.90;;;;;;4816123;29;20484;-78
2023/08/29 04:26:28;;;;;;;7.87;6.60;;;26.40;99.90;;;;;;4814993;29;20225;-83
2023/08/29 04:28:54;;;;;;;7.20;6.20;;;26.40;99.90;;;;;;4822365;29;20743;-78
2023/08/29 04:31:20;;;;;;;11.03;6.90;;;26.50;99.90;;;;;;4816398;29;20510;-83
2023/08/29 04:33:46;;;;;;;8.47;6.60;;;26.50;99.90;;;;;;4816472;29;20277;-78
2023/08/29 04:36:18;;;;;;;9.23;6.30;;;26.50;99.90;;;;;;4817010;29;20895;-83
2023/08/29 04:38:50;;;;;;;8.93;7.10;;;26.60;99.90;;;;;;4815076;29;20553;-78
2023/08/29 04:41:16;;;;;;;10.70;6.60;;;26.60;99.90;;;;;;4817131;29;20738;-83
2023/08/29 04:43:42;;;;;;;8.77;7.67;;;26.70;99.90;;;;;;4816125;29;20812;-78
2023/08/29 04:46:07;;;;;;;7.57;6.50;;;26.70;99.90;;;;;;4820166;29;20825;-79
2023/08/29 04:48:34;;;;;;;7.23;6.20;;;26.70;99.90;;;;;;4818747;29;20645;-78
2023/08/29 04:51:00;;;;;;;13.33;7.50;;;26.80;99.90;;;;;;4818751;29;20205;-84
2023/08/29 04:53:26;;;;;;;8.10;7.20;;;26.80;99.90;;;;;;4819433;29;20507;-84
2023/08/29 04:56:02;;;;;;;9.97;7.43;;;26.80;99.90;;;;;;4813226;29;20508;-78
2023/08/29 04:58:29;;;;;;;8.20;6.63;;;26.80;99.90;;;;;;4816789;29;20232;-78
2023/08/29 05:00:55;;;;;;;7.73;6.93;;;26.80;99.90;;;;;;4818248;29;20446;-84
2023/08/29 05:03:21;;;;;;;9.80;6.00;;;26.80;99.90;;;;;;4816797;29;20440;-83
2023/08/29 05:05:47;;;;;;;7.60;6.53;;;26.80;99.90;;;;;;4832970;29;21126;-78
2023/08/29 05:08:13;;;;;;;8.13;6.50;;;26.80;99.90;;;;;;4818568;29;21019;-83
2023/08/29 05:10:40;;;;;;;8.50;7.00;;;26.80;99.90;;;;;;4817604;29;20837;-78
2023/08/29 05:13:06;;;;;;;11.57;7.17;;;26.80;99.90;;;;;;4816035;29;20285;-77
2023/08/29 05:15:32;;;;;;;10.97;7.80;;;26.80;99.90;;;;;;4819557;29;20887;-83
2023/08/29 05:17:58;;;;;;;9.50;6.40;;;26.80;99.90;;;;;;4816284;29;20181;-78
2023/08/29 05:20:24;;;;;;;8.67;6.80;;;26.80;99.90;;;;;;4817737;29;20452;-84
2023/08/29 05:22:50;;;;;;;9.87;6.37;;;26.80;99.90;;;;;;4816191;29;20687;-80
2023/08/29 05:25:16;;;;;;;13.00;6.70;;;26.80;99.90;;;;;;4825693;29;20568;-83
2023/08/29 05:27:41;;;;;;;9.23;6.73;;;26.80;99.90;;;;;;4817132;29;20186;-82
2023/08/29 05:30:07;;;;;;;7.50;6.57;;;26.80;99.90;;;;;;4816475;29;20194;-78
2023/08/29 05:32:33;;;;;;;8.03;6.60;;;26.90;99.90;;;;;;4813981;29;20632;-77
2023/08/29 05:34:59;;;;;;;8.50;6.80;;;26.90;99.90;;;;;;4805810;29;20449;-78
2023/08/29 05:37:25;;;;;;;8.63;7.13;;;27.00;99.90;;;;;;4807807;29;20284;-84
2023/08/29 05:39:51;;;;;;;7.50;6.63;;;27.00;99.90;;;;;;4815150;29;20628;-84
2023/08/29 05:42:17;;;;;;;10.20;7.37;;;27.10;99.90;;;;;;4812508;29;20558;-77
2023/08/29 05:44:43;;;;;;;9.50;6.67;;;27.10;99.90;;;;;;4815112;29;21018;-84
2023/08/29 05:47:09;;;;;;;7.87;6.97;;;27.20;99.90;;;;;;4818662;29;20209;-83
2023/08/29 05:49:35;;;;;;;7.07;5.80;;;27.20;99.90;;;;;;4815990;29;20494;-84
2023/08/29 05:52:01;;;;;;;8.90;5.80;;;27.20;99.90;;;;;;4809580;29;20481;-84
2023/08/29 05:54:27;;;;;;;7.10;6.40;;;27.20;99.90;;;;;;4811622;29;20420;-83
2023/08/29 05:56:52;;;;;;;8.50;6.67;;;27.20;99.90;;;;;;4809023;29;20252;-84
2023/08/29 05:59:18;;;;;;;8.00;6.43;;;27.20;99.90;;;;;;4805191;29;20430;-78
2023/08/29 06:01:44;;;;;;;10.10;7.27;;;27.30;99.90;;;;;;4813512;29;20584;-82
2023/08/29 06:04:10;;;;;;;11.87;7.23;;;27.20;99.90;;;;;;4814070;29;20266;-77
2023/08/29 06:06:39;;;;;;;11.70;6.57;;;27.20;99.90;;;;;;4812629;29;20665;-78
2023/08/29 06:09:11;;;;;;;10.83;7.03;;;27.20;99.90;;;;;;4807060;29;20243;-77
2023/08/29 06:11:37;;;;;;;8.97;6.63;;;27.20;99.90;;;;;;4813107;29;20964;-84
2023/08/29 06:14:02;;;;;;;7.73;6.97;;;27.20;99.90;;;;;;4814495;29;20670;-77
2023/08/29 06:16:28;;;;;;;8.53;6.43;;;27.20;99.90;;;;;;4816416;29;20492;-83
2023/08/29 06:18:54;;;;;;;8.30;6.90;;;27.20;99.90;;;;;;4809398;29;20305;-83
2023/08/29 06:21:21;;;;;;;9.50;7.50;;;27.20;99.90;;;;;;4818124;29;20457;-84
2023/08/29 06:23:46;;;;;;;8.53;7.03;;;27.20;99.90;;;;;;4817327;29;20674;-77
2023/08/29 06:26:12;;;;;;;9.37;7.20;;;27.20;99.90;;;;;;4815005;29;20242;-78
2023/08/29 06:28:38;;;;;;;12.97;7.40;;;27.20;99.90;;;;;;4816171;29;20327;-77
2023/08/29 06:31:05;;;;;;;10.10;8.60;;;27.10;99.90;;;;;;4812280;29;20225;-77
2023/08/29 06:33:31;;;;;;;10.20;7.57;;;27.00;99.90;;;;;;4823899;29;20194;-83
2023/08/29 06:35:57;;;;;;;11.70;8.30;;;26.70;99.90;;;;;;4813830;29;21110;-83
2023/08/29 06:38:23;;;;;;;9.67;7.23;;;26.70;99.90;;;;;;4816066;29;20430;-78
2023/08/29 06:40:55;;;;;;;8.83;7.60;;;26.70;99.90;;;;;;4811937;29;20713;-77
2023/08/29 06:43:21;;;;;;;11.30;7.70;;;26.70;99.90;;;;;;4807312;29;20350;-82
2023/08/29 06:45:47;;;;;;;10.33;8.00;;;26.70;99.90;;;;;;4803073;29;20525;-83
2023/08/29 06:48:13;;;;;;;10.90;8.07;;;26.70;99.90;;;;;;4812622;29;20462;-84
2023/08/29 06:50:38;;;;;;;8.77;7.83;;;26.70;99.90;;;;;;4812371;29;20285;-83
2023/08/29 06:53:05;;;;;;;13.10;7.50;;;26.70;99.90;;;;;;4811032;29;20192;-77
2023/08/29 06:55:34;;;;;;;9.53;7.93;;;26.70;99.90;;;;;;4809626;29;20489;-77
2023/08/29 06:58:04;;;;;;;12.00;8.87;;;26.70;99.90;;;;;;4810573;29;20162;-77
2023/08/29 07:00:31;;;;;;;10.43;7.67;;;26.70;99.90;;;;;;4808474;29;20469;-77
2023/08/29 07:03:00;;;;;;;9.87;8.30;;;26.60;99.90;;;;;;4806208;29;20438;-82
2023/08/29 07:05:26;;;;;;;9.43;7.57;;;26.60;99.90;;;;;;4808861;29;20950;-79
2023/08/29 07:07:52;;;;;;;13.87;10.30;;;26.60;99.90;;;;;;4809037;29;21023;-82
2023/08/29 07:10:18;;;;;;;13.27;10.13;;;26.40;99.90;;;;;;4809993;29;20564;-79
2023/08/29 07:12:44;;;;;;;12.93;8.43;;;26.20;99.90;;;;;;4811211;29;20429;-78
2023/08/29 07:15:10;;;;;;;84.87;55.23;;;25.90;99.90;;;;;;4809084;29;20460;-79
2023/08/29 07:17:35;;;;;;;12.23;9.20;;;25.60;99.90;;;;;;4802515;29;20208;-78
2023/08/29 07:20:08;;;;;;;10.67;8.67;;;25.50;99.90;;;;;;4824646;29;20476;-78
2023/08/29 07:22:43;;;;;;;10.83;8.37;;;25.40;99.90;;;;;;4813635;29;20587;-83
2023/08/29 07:25:11;;;;;;;19.00;11.93;;;25.40;99.90;;;;;;4821802;29;20472;-79
2023/08/29 07:27:38;;;;;;;21.60;12.83;;;25.20;99.90;;;;;;4812994;29;20846;-83
2023/08/29 07:30:05;;;;;;;18.93;13.07;;;24.90;99.90;;;;;;4811195;29;20468;-79
2023/08/29 07:32:31;;;;;;;19.17;13.47;;;24.80;99.90;;;;;;4809872;29;20442;-82
2023/08/29 07:34:58;;;;;;;17.40;10.83;;;24.70;99.90;;;;;;4810090;29;20453;-83
2023/08/29 07:37:24;;;;;;;15.83;10.30;;;24.70;99.90;;;;;;4810270;29;20276;-83
2023/08/29 07:39:50;;;;;;;12.40;9.10;;;24.60;99.90;;;;;;4800198;29;20611;-82
2023/08/29 07:42:16;;;;;;;13.73;10.37;;;24.60;99.90;;;;;;4810302;29;20660;-82
2023/08/29 07:44:43;;;;;;;14.17;9.67;;;24.60;99.90;;;;;;4808102;29;20463;-80
2023/08/29 07:47:08;;;;;;;10.43;8.90;;;24.40;99.90;;;;;;4808826;29;20598;-81
2023/08/29 07:49:37;;;;;;;16.20;9.63;;;24.30;99.90;;;;;;4810892;29;20459;-82
2023/08/29 07:52:03;;;;;;;12.07;8.60;;;24.20;99.90;;;;;;4811648;29;20189;-78
2023/08/29 07:54:29;;;;;;;11.20;7.63;;;24.20;99.90;;;;;;4809015;29;20451;-80
2023/08/29 07:56:55;;;;;;;9.43;7.60;;;24.10;99.90;;;;;;4811415;29;20483;-82
2023/08/29 07:59:22;;;;;;;10.00;7.37;;;24.00;99.90;;;;;;4807942;29;20250;-82
2023/08/29 08:01:48;;;;;;;8.70;6.93;;;24.00;99.90;;;;;;4808445;29;20196;-82
2023/08/29 08:04:15;;;;;;;8.83;7.00;;;24.00;99.90;;;;;;4824984;29;20435;-81
2023/08/29 08:06:42;;;;;;;9.70;7.40;;;24.00;99.90;;;;;;4806771;29;20598;-84
2023/08/29 08:09:08;;;;;;;9.27;7.40;;;24.10;99.90;;;;;;4797862;29;20456;-85
2023/08/29 08:11:34;;;;;;;10.40;7.33;;;24.20;99.90;;;;;;4811755;29;20464;-86
2023/08/29 08:14:00;;;;;;;9.67;7.60;;;24.30;99.90;;;;;;4809658;29;20434;-89
2023/08/29 08:16:25;;;;;;;9.87;7.37;;;24.40;99.90;;;;;;4810079;29;21114;-85
2023/08/29 08:18:51;;;;;;;10.30;6.80;;;24.50;99.90;;;;;;4806850;29;20191;-85
2023/08/29 08:21:18;;;;;;;8.20;6.47;;;24.70;99.90;;;;;;4810979;29;20297;-83
2023/08/29 08:23:44;;;;;;;9.67;7.33;;;24.70;99.90;;;;;;4812766;29;20192;-84
2023/08/29 08:26:10;;;;;;;9.77;6.90;;;24.80;99.90;;;;;;4812141;29;20492;-83
2023/08/29 08:28:36;;;;;;;6.73;5.97;;;24.90;99.90;;;;;;4813105;29;20189;-79
2023/08/29 08:31:02;;;;;;;11.57;7.80;;;25.00;99.90;;;;;;4811974;29;20904;-79
2023/08/29 08:33:28;;;;;;;9.50;6.97;;;25.00;99.90;;;;;;4812859;29;20418;-86
2023/08/29 08:35:54;;;;;;;9.57;7.20;;;25.10;99.90;;;;;;4811702;29;21025;-82
2023/08/29 08:38:20;;;;;;;10.67;6.50;;;25.20;99.90;;;;;;4800814;29;20429;-85
2023/08/29 08:40:46;;;;;;;9.10;6.13;;;25.10;99.90;;;;;;4811765;29;20270;-85
2023/08/29 08:43:13;;;;;;;9.33;7.30;;;25.10;99.90;;;;;;4814359;29;20792;-85
2023/08/29 08:45:39;;;;;;;11.50;7.00;;;25.10;99.90;;;;;;4814422;29;22850;-83
2023/08/29 08:48:06;;;;;;;9.83;7.60;;;25.10;99.90;;;;;;4811298;29;20421;-84
2023/08/29 08:50:32;;;;;;;8.30;7.20;;;25.00;99.90;;;;;;4810218;29;20555;-82
2023/08/29 08:52:59;;;;;;;9.43;7.50;;;25.10;99.90;;;;;;4804775;29;20513;-80
2023/08/29 08:55:26;;;;;;;12.70;8.27;;;25.20;99.90;;;;;;4807257;29;20488;-83
2023/08/29 08:57:52;;;;;;;7.57;6.80;;;25.00;99.90;;;;;;4805406;29;20422;-75
2023/08/29 09:00:20;;;;;;;8.87;6.57;;;25.00;99.90;;;;;;4810625;29;20480;-76
2023/08/29 09:02:46;;;;;;;8.87;7.63;;;25.10;99.90;;;;;;4810663;29;20441;-77
2023/08/29 09:05:12;;;;;;;9.33;7.50;;;25.00;99.90;;;;;;4810554;29;20508;-74
2023/08/29 09:07:39;;;;;;;15.23;8.17;;;24.90;99.90;;;;;;4808516;29;20561;-76
2023/08/29 09:10:07;;;;;;;9.90;6.87;;;24.80;99.90;;;;;;4809938;29;20501;-76
2023/08/29 09:12:34;;;;;;;10.90;7.80;;;24.80;99.90;;;;;;4824493;29;20448;-82
2023/08/29 09:15:04;;;;;;;8.17;6.80;;;24.80;99.90;;;;;;4809936;29;20449;-83
2023/08/29 09:17:30;;;;;;;9.77;7.87;;;24.90;99.90;;;;;;4811301;29;21022;-84
2023/08/29 09:19:59;;;;;;;9.53;7.83;;;24.80;99.90;;;;;;4811486;29;20452;-80
2023/08/29 09:22:25;;;;;;;12.93;7.40;;;24.70;99.90;;;;;;4805273;29;20461;-87
2023/08/29 09:24:50;;;;;;;8.53;7.17;;;24.80;99.90;;;;;;4799749;29;20464;-88
2023/08/29 09:27:17;;;;;;;9.57;7.90;;;24.90;99.90;;;;;;4813789;29;20555;-83
2023/08/29 09:29:43;;;;;;;10.43;8.33;;;24.90;99.90;;;;;;4807382;29;20210;-80
2023/08/29 09:32:15;;;;;;;9.83;7.97;;;25.10;99.90;;;;;;4814494;29;20561;-77
2023/08/29 09:34:42;;;;;;;13.30;7.43;;;25.20;99.90;;;;;;4808544;29;20704;-82
2023/08/29 09:37:10;;;;;;;12.77;7.93;;;25.30;99.90;;;;;;4812203;29;20437;-77
2023/08/29 09:39:37;;;;;;;10.57;7.43;;;25.40;99.90;;;;;;4807805;29;20449;-78
2023/08/29 09:42:08;;;;;;;9.90;7.20;;;25.60;99.90;;;;;;4816996;29;20437;-81
2023/08/29 09:44:39;;;;;;;9.73;7.80;;;25.60;99.90;;;;;;4815815;29;20450;-87
2023/08/29 09:47:05;;;;;;;7.77;6.97;;;25.70;99.90;;;;;;4802891;29;20493;-87
2023/08/29 09:49:43;;;;;;;8.40;7.33;;;25.70;99.90;;;;;;4799356;29;20959;-76
2023/08/29 09:52:10;;;;;;;7.10;6.23;;;25.80;99.90;;;;;;4829846;29;20450;-76
2023/08/29 09:54:49;;;;;;;11.30;7.63;;;25.80;99.90;;;;;;4816564;29;20954;-78
2023/08/29 09:57:21;;;;;;;11.57;6.87;;;25.90;99.90;;;;;;4807924;29;20553;-84
2023/08/29 09:59:48;;;;;;;10.57;7.53;;;26.00;99.90;;;;;;4807200;29;20556;-83
2023/08/29 10:02:17;;;;;;;11.20;8.97;;;26.10;99.90;;;;;;4813047;29;20441;-79
2023/08/29 10:04:46;;;;;;;11.03;8.27;;;26.20;99.90;;;;;;4811060;29;20457;-77
2023/08/29 10:07:25;;;;;;;7.63;6.83;;;26.30;99.90;;;;;;4812745;29;20477;-78
2023/08/29 10:09:51;;;;;;;9.17;6.30;;;26.40;99.90;;;;;;4820294;29;20514;-80
2023/08/29 10:12:18;;;;;;;8.60;6.90;;;26.50;99.90;;;;;;4813874;29;20429;-76
2023/08/29 10:14:44;;;;;;;9.30;8.00;;;26.60;99.90;;;;;;4812459;29;20476;-78
2023/08/29 10:17:12;;;;;;;8.10;6.90;;;26.70;99.90;;;;;;4808552;29;20869;-75
2023/08/29 10:19:39;;;;;;;10.30;7.23;;;26.80;99.90;;;;;;4801351;29;20206;-81
2023/08/29 10:22:08;;;;;;;10.50;6.23;;;26.80;99.90;;;;;;4809685;29;20438;-83
2023/08/29 10:24:37;;;;;;;8.13;6.83;;;26.80;99.90;;;;;;4810355;29;20461;-82
2023/08/29 10:27:03;;;;;;;11.00;8.17;;;26.80;99.90;;;;;;4805993;29;20522;-81
2023/08/29 10:29:30;;;;;;;11.33;8.13;;;26.80;99.90;;;;;;4808129;29;20425;-80
2023/08/29 10:31:57;;;;;;;8.97;7.50;;;26.80;99.90;;;;;;4807542;29;20664;-82
2023/08/29 10:34:26;;;;;;;7.47;6.77;;;26.90;99.90;;;;;;4807087;29;20437;-82
2023/08/29 10:36:52;;;;;;;8.20;7.50;;;26.80;99.90;;;;;;4809193;29;20462;-80
2023/08/29 10:39:19;;;;;;;9.50;6.47;;;26.80;99.90;;;;;;4807938;29;20779;-80
2023/08/29 10:41:46;;;;;;;18.93;17.17;;;26.80;99.90;;;;;;4804759;29;20213;-81
2023/08/29 10:44:36;;;;;;;9.07;8.27;;;26.80;99.90;;;;;;4808004;29;20464;-80
2023/08/29 10:47:26;;;;;;;6.73;6.10;;;26.80;99.90;;;;;;4800808;29;20622;-82
2023/08/29 10:50:05;;;;;;;13.30;7.60;;;27.00;99.90;;;;;;4808564;29;20501;-79
2023/08/29 10:52:41;;;;;;;7.80;7.00;;;27.10;99.90;;;;;;4808304;29;20486;-82
2023/08/29 10:55:27;;;;;;;11.07;6.97;;;27.10;99.90;;;;;;4810095;29;21139;-81
2023/08/29 10:57:58;;;;;;;7.93;6.67;;;27.20;99.90;;;;;;4806531;29;20616;-80
2023/08/29 11:00:41;;;;;;;7.43;6.60;;;27.10;99.90;;;;;;4812061;29;20453;-81
2023/08/29 11:03:07;;;;;;;8.57;6.73;;;27.10;99.90;;;;;;4811839;29;20449;-80
2023/08/29 11:05:38;;;;;;;9.17;6.50;;;27.10;99.90;;;;;;4801240;29;20509;-82
2023/08/29 11:08:23;;;;;;;7.10;5.70;;;27.10;99.90;;;;;;4815892;29;20322;-83
2023/08/29 11:11:28;;;;;;;7.77;6.20;;;27.10;99.90;;;;;;4797979;29;20508;-81
2023/08/29 11:13:57;;;;;;;7.13;6.43;;;27.20;99.90;;;;;;4752273;30;20550;-81
2023/08/29 11:16:23;;;;;;;9.10;7.43;;;27.20;99.90;;;;;;4752611;30;20563;-83
2023/08/29 11:19:09;;;;;;;7.10;6.20;;;27.30;99.90;;;;;;4774143;29;21031;-81
2023/08/29 11:21:35;;;;;;;8.87;6.50;;;27.30;99.90;;;;;;4801843;29;20461;-84
2023/08/29 11:24:02;;;;;;;8.60;5.87;;;27.30;99.90;;;;;;4798496;29;20423;-82
2023/08/29 11:26:28;;;;;;;9.53;5.70;;;27.30;99.90;;;;;;4816373;29;20767;-81
2023/08/29 11:28:54;;;;;;;9.53;6.63;;;27.30;99.90;;;;;;4817513;29;20521;-82
2023/08/29 11:31:21;;;;;;;8.63;6.00;;;27.30;99.90;;;;;;4801706;29;20507;-83
2023/08/29 11:33:47;;;;;;;7.90;6.60;;;27.30;99.90;;;;;;4801157;29;20199;-83
2023/08/29 11:36:13;;;;;;;11.20;6.80;;;27.30;99.90;;;;;;4804116;29;21297;-79
2023/08/29 11:38:39;;;;;;;8.37;6.30;;;27.20;99.90;;;;;;4801032;29;20456;-83
2023/08/29 11:41:05;;;;;;;8.87;7.33;;;27.20;99.90;;;;;;4805580;29;20550;-82
2023/08/29 11:43:35;;;;;;;7.30;6.17;;;27.20;99.90;;;;;;4802811;29;20547;-80
2023/08/29 11:46:03;;;;;;;6.93;5.57;;;27.10;99.90;;;;;;4802886;29;20490;-81
2023/08/29 11:48:31;;;;;;;7.80;6.33;;;27.20;99.90;;;;;;4804601;29;20448;-79
2023/08/29 11:51:06;;;;;;;7.93;6.20;;;27.20;99.90;;;;;;4807449;29;20453;-82
2023/08/29 11:53:34;;;;;;;7.17;6.03;;;27.20;99.90;;;;;;4802787;29;20445;-80
2023/08/29 11:56:02;;;;;;;8.10;6.87;;;27.20;99.90;;;;;;4803059;29;20568;-83
2023/08/29 11:58:33;;;;;;;8.97;7.27;;;27.20;99.90;;;;;;4801509;29;20444;-82
2023/08/29 12:01:04;;;;;;;8.80;6.77;;;27.20;99.90;;;;;;4801879;29;20462;-82
2023/08/29 12:03:33;;;;;;;8.77;7.70;;;27.20;99.90;;;;;;4802453;29;20505;-81
2023/08/29 12:05:59;;;;;;;8.03;6.40;;;27.20;99.90;;;;;;4802585;29;20695;-82
2023/08/29 12:08:37;;;;;;;7.93;7.13;;;27.20;99.90;;;;;;4802569;29;20513;-82
2023/08/29 12:11:03;;;;;;;13.30;7.97;;;27.20;99.90;;;;;;4802319;29;20477;-80
2023/08/29 12:13:29;;;;;;;6.70;5.80;;;27.30;99.90;;;;;;4807300;29;20438;-81
2023/08/29 12:15:57;;;;;;;7.53;6.73;;;27.30;99.90;;;;;;4804172;29;20568;-80
2023/08/29 12:18:24;;;;;;;6.90;6.20;;;27.20;99.90;;;;;;4804497;29;20194;-80
2023/08/29 12:20:51;;;;;;;7.40;6.40;;;27.20;99.90;;;;;;4802242;29;20481;-80
2023/08/29 12:23:27;;;;;;;7.30;6.60;;;27.20;99.90;;;;;;4803554;29;20431;-80
2023/08/29 12:25:55;;;;;;;6.80;5.77;;;27.30;99.90;;;;;;4802084;29;21023;-79
2023/08/29 12:28:23;;;;;;;7.10;5.90;;;27.30;99.90;;;;;;4801363;29;20513;-79
2023/08/29 12:30:48;;;;;;;7.03;6.33;;;27.30;99.90;;;;;;4802775;29;20564;-79
2023/08/29 12:33:14;;;;;;;9.47;6.57;;;27.30;99.90;;;;;;4801606;29;20697;-79
2023/08/29 12:35:39;;;;;;;7.83;5.30;;;27.30;99.90;;;;;;4811031;29;20206;-80
2023/08/29 12:38:06;;;;;;;7.07;6.20;;;27.30;99.90;;;;;;4797050;29;20285;-79
2023/08/29 12:40:32;;;;;;;7.60;5.67;;;27.30;99.90;;;;;;4793289;29;20218;-80
2023/08/29 12:42:57;;;;;;;6.40;5.80;;;27.40;99.90;;;;;;4800810;29;20426;-80
2023/08/29 12:45:23;;;;;;;10.60;5.90;;;27.30;99.90;;;;;;4797441;29;20219;-80